Time;durP1;ratioP1;P1;durP2;ratioP2;P2;SDS_P1;SDS_P2;PMS_P1;PMS_P2;Temp;Humidity;BMP_temperature;BMP_pressure;BME280_temperature;BME280_humidity;BME280_pressure;Samples;Min_cycle;Max_cycle;Signal;HPM_P1;HPM_P2
2024/02/22 00:01:01;;;;;;;0.63;0.60;;;;;;;10.32;100.00;97933.16;5035607;28;19955;-77
2024/02/22 00:03:26;;;;;;;2.42;0.95;;;;;;;10.30;100.00;97924.47;5027806;28;20041;-77
2024/02/22 00:05:52;;;;;;;1.92;0.80;;;;;;;10.35;100.00;97927.31;5026331;28;20257;-77
2024/02/22 00:08:17;;;;;;;2.90;0.70;;;;;;;10.40;100.00;97932.88;5025253;28;20029;-77
2024/02/22 00:10:42;;;;;;;1.45;0.90;;;;;;;10.46;100.00;97931.16;5027296;28;20324;-77
2024/02/22 00:13:08;;;;;;;1.52;0.70;;;;;;;10.37;100.00;97924.38;5043597;28;20025;-77
2024/02/22 00:15:33;;;;;;;4.30;0.77;;;;;;;10.18;100.00;97899.16;5018916;28;20028;-77
2024/02/22 00:17:58;;;;;;;2.75;0.80;;;;;;;10.25;100.00;97905.34;5026144;28;20029;-78
2024/02/22 00:20:23;;;;;;;2.03;0.80;;;;;;;10.13;100.00;97885.50;5030578;28;20025;-77
2024/02/22 00:22:49;;;;;;;2.38;0.90;;;;;;;10.15;100.00;97892.34;5028686;28;20131;-77
2024/02/22 00:25:15;;;;;;;1.30;0.85;;;;;;;10.14;100.00;97876.31;5023358;28;20020;-78
2024/02/22 00:27:40;;;;;;;1.70;0.80;;;;;;;10.18;100.00;97888.38;5027280;28;20068;-75
2024/02/22 00:30:09;;;;;;;4.78;0.90;;;;;;;10.13;100.00;97883.63;5026807;28;20041;-74
2024/02/22 00:32:35;;;;;;;1.95;0.80;;;;;;;10.03;100.00;97876.03;5033469;28;20025;-75
2024/02/22 00:35:00;;;;;;;2.20;0.90;;;;;;;9.93;100.00;97862.22;5015802;28;20109;-75
2024/02/22 00:37:26;;;;;;;1.65;0.90;;;;;;;9.95;100.00;97870.91;5017998;28;20071;-76
2024/02/22 00:39:51;;;;;;;2.80;0.93;;;;;;;9.82;100.00;97861.06;5034004;28;20029;-75
2024/02/22 00:42:16;;;;;;;2.83;1.00;;;;;;;9.65;100.00;97852.69;5020002;28;20093;-75
2024/02/22 00:44:42;;;;;;;2.55;1.00;;;;;;;9.62;100.00;97853.13;5025264;28;20148;-75
2024/02/22 00:47:07;;;;;;;1.88;0.82;;;;;;;9.57;100.00;97844.84;5025300;28;20023;-76
2024/02/22 00:49:32;;;;;;;2.88;1.15;;;;;;;9.66;100.00;97837.28;5024105;28;20026;-76
2024/02/22 00:51:57;;;;;;;3.80;1.15;;;;;;;9.64;100.00;97836.69;5040556;28;20037;-76
2024/02/22 00:54:23;;;;;;;2.63;1.00;;;;;;;9.69;100.00;97812.53;5028407;28;20025;-77
2024/02/22 00:56:49;;;;;;;4.10;1.08;;;;;;;9.67;100.00;97801.16;5036935;28;20026;-76
2024/02/22 00:59:14;;;;;;;1.85;1.10;;;;;;;9.69;100.00;97800.91;5029202;28;20064;-77
2024/02/22 01:01:41;;;;;;;2.30;0.80;;;;;;;9.65;100.00;97803.25;5021077;28;20029;-77
2024/02/22 01:04:07;;;;;;;1.48;1.05;;;;;;;9.69;100.00;97790.94;5018534;28;20322;-77
2024/02/22 01:06:33;;;;;;;1.75;1.10;;;;;;;9.58;100.00;97784.38;5024688;28;20032;-77
2024/02/22 01:08:59;;;;;;;2.10;1.08;;;;;;;9.49;100.00;97795.72;5017125;28;20029;-76
2024/02/22 01:11:24;;;;;;;2.50;0.82;;;;;;;9.37;100.00;97801.81;5026315;28;20021;-76
2024/02/22 01:13:50;;;;;;;1.70;0.80;;;;;;;9.38;100.00;97789.16;5016868;28;20324;-76
2024/02/22 01:16:18;;;;;;;3.47;1.00;;;;;;;9.32;100.00;97787.31;5018028;28;20040;-77
2024/02/22 01:18:43;;;;;;;2.35;1.15;;;;;;;9.40;100.00;97773.53;5013441;28;20064;-77
2024/02/22 01:21:09;;;;;;;3.70;1.23;;;;;;;9.35;100.00;97768.84;5025131;28;20017;-76
2024/02/22 01:23:35;;;;;;;4.82;1.05;;;;;;;9.29;100.00;97745.41;5030203;28;20326;-78
2024/02/22 01:26:00;;;;;;;2.38;0.93;;;;;;;9.44;100.00;97769.38;5016149;28;20026;-77
2024/02/22 01:28:25;;;;;;;1.83;0.80;;;;;;;9.46;100.00;97761.88;5033988;22;20064;-77
2024/02/22 01:30:51;;;;;;;1.55;0.70;;;;;;;9.52;100.00;97743.97;5028176;28;20021;-77
2024/02/22 01:33:17;;;;;;;1.30;0.80;;;;;;;9.56;100.00;97751.41;5053237;28;20017;-77
2024/02/22 01:35:42;;;;;;;1.67;0.98;;;;;;;9.54;100.00;97737.28;5048719;28;20061;-77
2024/02/22 01:38:07;;;;;;;1.67;0.90;;;;;;;9.71;100.00;97721.31;5035274;28;20029;-77
2024/02/22 01:40:33;;;;;;;2.65;1.00;;;;;;;9.78;100.00;97727.47;5028035;28;20126;-77
2024/02/22 01:42:58;;;;;;;1.92;0.93;;;;;;;9.82;100.00;97725.16;5036791;28;20017;-77
2024/02/22 01:45:23;;;;;;;1.83;0.90;;;;;;;9.83;100.00;97719.53;5046997;28;20033;-77
2024/02/22 01:47:49;;;;;;;4.15;0.90;;;;;;;9.74;100.00;97701.97;5044799;28;20041;-78
2024/02/22 01:50:16;;;;;;;1.88;0.98;;;;;;;9.91;100.00;97721.09;5034104;28;20021;-78
2024/02/22 01:52:42;;;;;;;2.13;0.90;;;;;;;9.97;100.00;97713.97;5030260;28;20087;-77
2024/02/22 01:55:09;;;;;;;1.77;1.10;;;;;;;10.07;100.00;97712.38;5037479;28;20336;-77
2024/02/22 01:57:35;;;;;;;1.92;0.80;;;;;;;10.12;100.00;97706.31;5029874;28;20101;-77
2024/02/22 02:00:03;;;;;;;1.38;0.85;;;;;;;10.17;100.00;97706.44;5026505;28;20025;-77
2024/02/22 02:02:28;;;;;;;1.33;0.82;;;;;;;10.15;100.00;97695.03;5045813;28;20045;-78
2024/02/22 02:04:54;;;;;;;1.95;0.88;;;;;;;10.18;100.00;97694.56;5026228;28;20059;-78
2024/02/22 02:07:19;;;;;;;2.50;0.90;;;;;;;10.10;100.00;97681.38;5054136;28;20123;-78
2024/02/22 02:09:45;;;;;;;2.88;0.88;;;;;;;10.17;100.00;97689.41;5041180;28;20041;-79
2024/02/22 02:12:10;;;;;;;2.63;0.73;;;;;;;10.10;100.00;97670.56;5038366;28;20114;-78
2024/02/22 02:14:35;;;;;;;1.33;0.70;;;;;;;10.01;100.00;97672.75;5033388;28;20383;-79
2024/02/22 02:17:00;;;;;;;2.13;0.93;;;;;;;9.94;100.00;97666.63;5045446;28;20043;-78
2024/02/22 02:19:29;;;;;;;1.65;0.77;;;;;;;10.00;100.00;97663.00;5039119;28;20055;-78
2024/02/22 02:22:16;;;;;;;1.07;0.80;;;;;;;9.94;100.00;97657.69;5034880;28;20208;-78
2024/02/22 02:24:52;;;;;;;2.55;0.75;;;;;;;9.69;100.00;97606.47;5043721;28;20371;-79
2024/02/22 02:27:17;;;;;;;1.98;0.80;;;;;;;9.79;100.00;97652.66;5038115;28;20039;-77
2024/02/22 02:29:44;;;;;;;1.50;0.70;;;;;;;9.72;100.00;97633.00;5028775;28;20332;-77
2024/02/22 02:32:09;;;;;;;1.63;0.70;;;;;;;9.52;100.00;97611.66;5026554;28;20017;-78
2024/02/22 02:34:34;;;;;;;2.95;0.75;;;;;;;9.60;100.00;97628.38;5044098;28;20251;-77
2024/02/22 02:36:59;;;;;;;1.45;0.75;;;;;;;9.52;100.00;97614.38;5032006;28;20031;-78
2024/02/22 02:39:25;;;;;;;1.48;0.60;;;;;;;9.63;100.00;97616.28;5045698;28;20534;-77
2024/02/22 02:41:51;;;;;;;1.98;0.70;;;;;;;9.60;100.00;97622.16;5029984;28;20017;-77
2024/02/22 02:44:16;;;;;;;1.60;0.80;;;;;;;9.51;100.00;97623.50;5026978;28;20017;-77
2024/02/22 02:46:41;;;;;;;2.65;1.08;;;;;;;9.59;100.00;97629.44;5032612;28;20268;-77
2024/02/22 02:49:07;;;;;;;1.08;0.57;;;;;;;9.55;100.00;97630.94;5036710;28;20055;-77
2024/02/22 02:51:32;;;;;;;1.15;0.73;;;;;;;9.54;100.00;97605.00;5040835;28;20020;-78
2024/02/22 02:53:57;;;;;;;2.08;0.75;;;;;;;9.49;100.00;97604.03;5025409;28;20105;-78
2024/02/22 02:56:23;;;;;;;2.20;0.73;;;;;;;9.59;100.00;97615.13;5048783;28;20423;-78
2024/02/22 02:58:48;;;;;;;1.30;0.70;;;;;;;9.50;100.00;97590.28;5028394;28;20089;-78
2024/02/22 03:01:13;;;;;;;1.80;0.80;;;;;;;9.65;100.00;97625.00;5043788;28;20067;-78
2024/02/22 03:03:38;;;;;;;1.38;0.60;;;;;;;9.41;100.00;97581.66;5036067;28;20033;-78
2024/02/22 03:06:04;;;;;;;1.77;0.52;;;;;;;9.39;100.00;97581.06;5035742;28;20366;-78
2024/02/22 03:08:30;;;;;;;2.80;0.60;;;;;;;9.40;100.00;97589.97;5029807;28;20021;-78
2024/02/22 03:10:55;;;;;;;1.25;0.57;;;;;;;9.53;100.00;97610.59;5030740;28;20025;-77
2024/02/22 03:13:21;;;;;;;1.52;0.50;;;;;;;9.38;100.00;97594.81;5033304;28;20028;-77
2024/02/22 03:15:48;;;;;;;0.55;0.40;;;;;;;9.29;100.00;97571.84;5037509;28;20029;-78
2024/02/22 03:18:13;;;;;;;0.90;0.55;;;;;;;9.30;100.00;97579.72;5054634;28;20072;-78
2024/02/22 03:20:39;;;;;;;1.08;0.57;;;;;;;9.29;100.00;97590.75;5030056;28;20053;-77
2024/02/22 03:23:04;;;;;;;0.88;0.47;;;;;;;9.21;100.00;97592.69;5033645;28;20216;-77
2024/02/22 03:25:30;;;;;;;0.63;0.38;;;;;;;9.12;100.00;97572.44;5035839;28;20092;-77
2024/02/22 03:27:58;;;;;;;1.17;0.50;;;;;;;9.03;100.00;97573.78;5036025;28;20024;-78
2024/02/22 03:30:24;;;;;;;0.57;0.30;;;;;;;8.94;100.00;97557.06;5027414;28;20044;-78
2024/02/22 03:32:49;;;;;;;0.95;0.50;;;;;;;9.03;100.00;97567.56;5041172;28;20029;-78
2024/02/22 03:35:14;;;;;;;0.93;0.32;;;;;;;9.00;100.00;97561.56;5058013;28;20053;-77
2024/02/22 03:37:39;;;;;;;1.30;0.50;;;;;;;8.99;100.00;97568.03;5051235;28;20017;-78
2024/02/22 03:40:06;;;;;;;0.70;0.30;;;;;;;8.97;100.00;97555.81;5041875;28;20028;-78
2024/02/22 03:42:31;;;;;;;0.95;0.38;;;;;;;9.04;100.00;97561.13;5035173;28;20024;-78
2024/02/22 03:44:56;;;;;;;3.20;0.50;;;;;;;9.00;100.00;97555.34;5054010;28;20021;-78
2024/02/22 03:47:22;;;;;;;0.68;0.28;;;;;;;8.83;100.00;97547.03;5033617;28;20021;-78
2024/02/22 03:49:47;;;;;;;0.40;0.30;;;;;;;8.86;100.00;97549.28;5036744;28;20027;-79
2024/02/22 03:52:13;;;;;;;0.75;0.50;;;;;;;8.83;100.00;97544.34;5039734;28;20028;-79
2024/02/22 03:54:39;;;;;;;2.58;0.60;;;;;;;8.82;100.00;97545.38;5040870;28;20025;-78
2024/02/22 03:57:04;;;;;;;0.85;0.35;;;;;;;8.79;100.00;97540.41;5033681;28;20252;-79
2024/02/22 03:59:30;;;;;;;1.83;0.70;;;;;;;8.80;100.00;97539.38;5028342;28;20017;-78
2024/02/22 04:01:55;;;;;;;1.30;0.60;;;;;;;8.82;100.00;97533.75;5030595;28;20017;-78
2024/02/22 04:04:21;;;;;;;1.65;0.40;;;;;;;8.92;100.00;97540.28;5036618;28;20017;-77
2024/02/22 04:06:46;;;;;;;0.88;0.50;;;;;;;8.80;100.00;97536.66;5052055;28;20059;-77
2024/02/22 04:09:11;;;;;;;1.27;0.52;;;;;;;8.76;100.00;97530.91;5030986;28;20025;-77
2024/02/22 04:11:36;;;;;;;1.17;0.50;;;;;;;8.79;100.00;97551.22;5049370;28;20088;-77
2024/02/22 04:14:02;;;;;;;1.55;0.60;;;;;;;8.70;100.00;97553.38;5047858;28;20071;-77
2024/02/22 04:16:27;;;;;;;1.75;0.50;;;;;;;8.55;100.00;97542.94;5037053;28;20400;-78
2024/02/22 04:18:52;;;;;;;1.50;0.50;;;;;;;8.66;100.00;97554.84;5037241;28;20312;-78
2024/02/22 04:21:18;;;;;;;0.57;0.30;;;;;;;8.61;100.00;97551.19;5048880;28;20094;-81
2024/02/22 04:23:43;;;;;;;1.52;0.40;;;;;;;8.61;100.00;97553.88;5037856;28;20036;-77
2024/02/22 04:26:08;;;;;;;0.90;0.47;;;;;;;8.73;100.00;97541.31;5049315;28;20048;-77
2024/02/22 04:28:33;;;;;;;1.35;0.40;;;;;;;8.50;100.00;97506.91;5046242;28;20026;-77
2024/02/22 04:30:59;;;;;;;0.70;0.30;;;;;;;8.73;100.00;97519.75;5046067;28;20328;-81
2024/02/22 04:33:25;;;;;;;0.38;0.35;;;;;;;8.65;100.00;97502.00;5035831;28;20053;-78
2024/02/22 04:35:50;;;;;;;0.95;0.40;;;;;;;8.58;100.00;97481.53;5032402;28;20197;-78
2024/02/22 04:38:15;;;;;;;0.90;0.38;;;;;;;8.66;100.00;97481.25;5033125;28;20088;-80
2024/02/22 04:40:41;;;;;;;0.75;0.52;;;;;;;8.54;100.00;97479.28;5054877;28;20055;-79
2024/02/22 04:43:06;;;;;;;1.45;0.40;;;;;;;8.56;100.00;97485.25;5031589;28;20033;-80
2024/02/22 04:45:35;;;;;;;0.45;0.22;;;;;;;8.81;100.00;97522.16;5032376;28;20244;-80
2024/02/22 04:48:01;;;;;;;0.73;0.45;;;;;;;8.43;100.00;97480.00;5030306;28;20044;-80
2024/02/22 04:50:30;;;;;;;0.57;0.40;;;;;;;8.76;100.00;97522.00;5042759;28;20916;-80
2024/02/22 04:52:56;;;;;;;0.98;0.60;;;;;;;8.59;100.00;97485.88;5025777;28;20018;-80
2024/02/22 04:55:21;;;;;;;1.17;0.43;;;;;;;8.44;100.00;97462.00;5050385;28;20052;-80
2024/02/22 04:57:48;;;;;;;2.83;0.70;;;;;;;8.79;100.00;97499.97;5029177;28;20037;-79
2024/02/22 05:00:14;;;;;;;5.25;0.70;;;;;;;8.74;100.00;97503.34;5054895;28;20092;-82
2024/02/22 05:02:39;;;;;;;0.93;0.47;;;;;;;8.75;100.00;97498.75;5027252;28;20025;-82
2024/02/22 05:05:06;;;;;;;1.70;0.70;;;;;;;8.63;100.00;97484.38;5034556;28;20056;-84
2024/02/22 05:07:32;;;;;;;2.05;0.68;;;;;;;8.70;100.00;97493.25;5040099;22;20059;-58
2024/02/22 05:09:58;;;;;;;0.70;0.40;;;;;;;8.69;100.00;97496.97;5046031;28;20028;-59
2024/02/22 05:12:23;;;;;;;2.10;0.73;;;;;;;8.66;100.00;97505.50;5053251;28;20099;-59
2024/02/22 05:14:49;;;;;;;0.80;0.50;;;;;;;8.59;100.00;97507.44;5054336;28;20380;-58
2024/02/22 05:17:14;;;;;;;0.82;0.60;;;;;;;8.64;100.00;97494.94;5044019;28;20076;-59
2024/02/22 05:19:40;;;;;;;2.20;0.45;;;;;;;8.62;100.00;97498.91;5051253;28;20031;-58
2024/02/22 05:22:06;;;;;;;1.45;0.80;;;;;;;8.59;100.00;97491.25;5052253;28;20017;-59
2024/02/22 05:24:32;;;;;;;1.17;0.80;;;;;;;8.53;100.00;97474.09;5047612;28;20028;-59
2024/02/22 05:26:58;;;;;;;3.15;0.90;;;;;;;8.54;100.00;97479.28;5042380;28;20087;-59
2024/02/22 05:29:24;;;;;;;2.35;0.80;;;;;;;8.49;100.00;97476.44;5045645;28;20033;-59
2024/02/22 05:31:52;;;;;;;2.60;0.90;;;;;;;8.42;100.00;97469.47;5047019;28;20021;-59
2024/02/22 05:34:17;;;;;;;1.30;0.82;;;;;;;8.44;100.00;97465.50;5051457;28;20032;-59
2024/02/22 05:36:43;;;;;;;0.77;0.70;;;;;;;8.43;100.00;97461.13;5051701;28;20029;-59
2024/02/22 05:39:09;;;;;;;0.93;0.70;;;;;;;8.39;100.00;97459.09;5049326;28;20427;-58
2024/02/22 05:41:36;;;;;;;1.45;0.77;;;;;;;8.35;100.00;97458.69;5051094;28;20053;-59
2024/02/22 05:44:02;;;;;;;1.50;0.85;;;;;;;8.33;100.00;97455.41;5053414;28;20036;-60
2024/02/22 05:46:27;;;;;;;1.10;0.80;;;;;;;8.32;100.00;97464.53;5052715;28;20032;-59
2024/02/22 05:48:53;;;;;;;2.13;0.90;;;;;;;8.31;100.00;97454.81;5048563;28;20111;-58
2024/02/22 05:51:18;;;;;;;2.10;0.68;;;;;;;8.38;100.00;97452.03;5043469;28;20546;-58
2024/02/22 05:53:43;;;;;;;1.92;0.80;;;;;;;8.38;100.00;97450.16;5044420;28;20117;-58
2024/02/22 05:56:09;;;;;;;1.08;0.70;;;;;;;8.40;100.00;97437.31;5049407;28;20468;-58
2024/02/22 05:58:34;;;;;;;2.92;0.70;;;;;;;8.39;100.00;97435.69;5046638;28;20017;-58
2024/02/22 06:00:59;;;;;;;2.40;0.85;;;;;;;8.39;100.00;97442.94;5048526;28;20567;-59
2024/02/22 06:03:25;;;;;;;1.58;0.50;;;;;;;8.35;100.00;97448.75;5046499;28;20046;-58
2024/02/22 06:05:50;;;;;;;1.75;0.63;;;;;;;8.34;100.00;97441.72;5048945;28;20387;-58
2024/02/22 06:08:17;;;;;;;1.40;0.60;;;;;;;8.34;100.00;97447.09;5039054;28;20040;-58
2024/02/22 06:10:42;;;;;;;0.82;0.60;;;;;;;8.34;100.00;97441.72;5046243;28;20040;-58
2024/02/22 06:13:08;;;;;;;1.83;0.80;;;;;;;8.35;100.00;97445.22;5048281;28;20075;-58
2024/02/22 06:15:34;;;;;;;1.23;0.70;;;;;;;8.31;100.00;97434.06;5045713;28;20024;-57
2024/02/22 06:17:59;;;;;;;0.93;0.68;;;;;;;8.31;100.00;97435.97;5043107;28;20029;-58
2024/02/22 06:20:24;;;;;;;4.97;0.80;;;;;;;8.33;100.00;97429.28;5043290;28;20021;-57
2024/02/22 06:22:50;;;;;;;1.52;0.98;;;;;;;8.31;100.00;97431.38;5047464;28;20028;-58
2024/02/22 06:25:16;;;;;;;1.63;0.85;;;;;;;8.37;100.00;97426.97;5051029;28;20032;-57
2024/02/22 06:27:45;;;;;;;1.80;1.13;;;;;;;8.39;100.00;97424.91;5047005;28;20411;-57
2024/02/22 06:30:11;;;;;;;1.83;1.00;;;;;;;8.39;100.00;97416.84;5043830;28;20033;-57
2024/02/22 06:32:36;;;;;;;8.57;1.10;;;;;;;8.40;100.00;97423.03;5049319;28;20503;-57
2024/02/22 06:35:02;;;;;;;1.10;0.80;;;;;;;8.37;100.00;97418.06;5046285;28;20033;-58
2024/02/22 06:37:27;;;;;;;2.38;0.90;;;;;;;8.42;100.00;97412.88;5040100;28;20029;-58
2024/02/22 06:39:53;;;;;;;1.17;0.70;;;;;;;8.43;100.00;97411.81;5046102;28;20060;-57
2024/02/22 06:42:19;;;;;;;3.42;0.88;;;;;;;8.43;100.00;97406.41;5051909;28;20028;-57
2024/02/22 06:44:45;;;;;;;1.27;0.70;;;;;;;8.44;100.00;97414.28;5050223;28;20032;-58
2024/02/22 06:47:11;;;;;;;1.00;0.80;;;;;;;8.42;100.00;97405.59;5043871;28;20036;-57
2024/02/22 06:49:37;;;;;;;3.08;1.00;;;;;;;8.47;100.00;97403.06;5049357;28;20025;-57
2024/02/22 06:52:02;;;;;;;1.23;0.70;;;;;;;8.45;100.00;97409.72;5050207;28;20033;-57
2024/02/22 06:54:28;;;;;;;1.48;0.70;;;;;;;8.47;100.00;97397.66;5044815;28;20021;-57
2024/02/22 06:56:53;;;;;;;2.75;0.98;;;;;;;8.45;100.00;97396.25;5050119;28;20029;-57
2024/02/22 06:59:20;;;;;;;1.17;0.73;;;;;;;8.45;100.00;97407.03;5045501;28;20025;-57
2024/02/22 07:01:47;;;;;;;1.38;0.70;;;;;;;8.46;100.00;97390.63;5048807;28;20341;-57
2024/02/22 07:04:12;;;;;;;1.88;0.80;;;;;;;8.42;100.00;97392.13;5050677;28;20032;-57
2024/02/22 07:06:38;;;;;;;1.58;1.00;;;;;;;8.45;100.00;97390.84;5048766;28;20017;-57
2024/02/22 07:09:04;;;;;;;2.58;1.13;;;;;;;8.48;100.00;97383.13;5047113;28;20017;-57
2024/02/22 07:11:30;;;;;;;1.58;0.75;;;;;;;8.47;100.00;97383.38;5049652;28;20044;-57
2024/02/22 07:13:56;;;;;;;2.83;1.20;;;;;;;8.46;100.00;97389.78;5048348;28;20035;-57
2024/02/22 07:16:23;;;;;;;4.03;0.93;;;;;;;8.49;100.00;97392.06;5043509;28;20064;-57
2024/02/22 07:18:49;;;;;;;2.00;1.10;;;;;;;8.47;100.00;97386.06;5042530;28;20022;-58
2024/02/22 07:21:14;;;;;;;3.97;1.13;;;;;;;8.49;100.00;97384.78;5051216;28;20406;-57
2024/02/22 07:23:40;;;;;;;5.32;0.80;;;;;;;8.49;100.00;97386.66;5045162;28;20017;-57
2024/02/22 07:26:12;;;;;;;1.15;0.80;;;;;;;8.46;100.00;97382.56;5048175;28;20017;-60
2024/02/22 07:28:38;;;;;;;1.33;0.90;;;;;;;8.50;100.00;97386.44;5044377;28;20029;-60
2024/02/22 07:31:11;;;;;;;3.22;1.00;;;;;;;8.50;100.00;97375.66;5043120;28;20135;-60
2024/02/22 07:33:36;;;;;;;3.00;0.80;;;;;;;8.54;100.00;97376.84;5048778;28;20403;-60
2024/02/22 07:36:02;;;;;;;3.20;1.08;;;;;;;8.55;100.00;97375.78;5047562;28;20111;-60
2024/02/22 07:38:27;;;;;;;1.38;0.85;;;;;;;8.56;100.00;97372.03;5040536;28;20072;-61
2024/02/22 07:40:54;;;;;;;3.08;1.17;;;;;;;8.59;100.00;97373.47;5049319;28;20142;-61
2024/02/22 07:43:20;;;;;;;1.88;1.02;;;;;;;8.64;100.00;97367.41;5047814;28;20021;-60
2024/02/22 07:45:45;;;;;;;1.50;0.85;;;;;;;8.63;100.00;97365.75;5050868;28;20377;-62
2024/02/22 07:48:11;;;;;;;1.70;0.95;;;;;;;8.67;100.00;97359.69;5049480;28;20029;-60
2024/02/22 07:50:37;;;;;;;2.35;0.85;;;;;;;8.65;100.00;97360.97;5051949;28;20033;-60
2024/02/22 07:53:03;;;;;;;2.03;0.90;;;;;;;8.69;100.00;97351.38;5053151;28;20544;-61
2024/02/22 07:55:28;;;;;;;1.70;0.98;;;;;;;8.71;100.00;97352.78;5050611;28;20036;-61
2024/02/22 07:57:54;;;;;;;1.75;1.10;;;;;;;8.66;100.00;97336.47;5048561;28;20025;-62
2024/02/22 08:00:20;;;;;;;1.33;0.68;;;;;;;8.73;100.00;97357.97;5051675;28;21311;-61
2024/02/22 08:02:45;;;;;;;2.17;1.30;;;;;;;8.78;100.00;97352.72;5054411;28;20063;-60
2024/02/22 08:05:11;;;;;;;6.95;1.33;;;;;;;8.78;100.00;97345.44;5052477;28;20024;-61
2024/02/22 08:07:40;;;;;;;3.05;1.40;;;;;;;8.79;100.00;97340.88;5057587;22;20029;-74
2024/02/22 08:10:06;;;;;;;4.00;1.50;;;;;;;8.62;100.00;97320.97;5042031;28;20025;-73
2024/02/22 08:12:32;;;;;;;2.75;1.55;;;;;;;8.75;100.00;97340.50;5038704;28;20136;-70
2024/02/22 08:14:58;;;;;;;3.15;1.38;;;;;;;8.73;100.00;97325.63;5042662;28;20025;-70
2024/02/22 08:17:23;;;;;;;3.10;1.35;;;;;;;8.83;100.00;97336.69;5033223;28;20099;-70
2024/02/22 08:19:48;;;;;;;3.35;1.52;;;;;;;8.85;100.00;97334.56;5027312;28;20048;-70
2024/02/22 08:22:14;;;;;;;2.58;1.58;;;;;;;8.79;100.00;97327.38;5028538;28;20202;-70
2024/02/22 08:24:39;;;;;;;2.88;1.40;;;;;;;8.81;100.00;97321.78;5023501;28;20049;-70
2024/02/22 08:27:04;;;;;;;3.33;1.70;;;;;;;8.83;100.00;97336.69;5025264;28;20092;-71
2024/02/22 08:29:30;;;;;;;5.68;2.13;;;;;;;8.81;100.00;97311.81;5022865;28;20032;-73
2024/02/22 08:31:55;;;;;;;3.53;1.80;;;;;;;8.86;100.00;97314.63;5013108;28;20032;-82
2024/02/22 08:34:20;;;;;;;4.55;1.80;;;;;;;8.83;100.00;97306.16;5035797;28;20202;-72
2024/02/22 08:36:46;;;;;;;3.30;1.80;;;;;;;8.91;100.00;97311.25;5029503;28;20026;-82
2024/02/22 08:39:12;;;;;;;4.10;1.77;;;;;;;8.76;100.00;97282.00;4993365;28;20029;-81
2024/02/22 08:41:38;;;;;;;2.83;1.40;;;;;;;8.95;100.00;97302.47;5015343;28;20027;-84
2024/02/22 08:44:05;;;;;;;2.08;1.23;;;;;;;8.93;100.00;97307.28;5016475;28;20329;-86
2024/02/22 08:46:30;;;;;;;3.60;1.30;;;;;;;8.90;100.00;97291.53;5013999;28;20053;-79
2024/02/22 08:48:56;;;;;;;3.67;1.70;;;;;;;8.94;100.00;97289.22;5023099;28;20049;-78
2024/02/22 08:51:21;;;;;;;2.85;1.40;;;;;;;8.94;100.00;97306.22;5017402;28;20217;-82
2024/02/22 08:53:46;;;;;;;4.82;1.83;;;;;;;8.99;100.00;97300.97;5031139;28;20021;-80
2024/02/22 08:56:11;;;;;;;3.38;1.60;;;;;;;8.95;100.00;97296.25;5032092;28;20217;-78
2024/02/22 08:58:37;;;;;;;3.22;1.45;;;;;;;9.03;100.00;97317.50;5030094;28;20156;-85
2024/02/22 09:01:03;;;;;;;3.20;1.15;;;;;;;8.94;100.00;97290.03;5031935;28;20072;-79
2024/02/22 09:03:28;;;;;;;2.38;1.00;;;;;;;8.94;100.00;97279.25;5027541;28;20221;-82
2024/02/22 09:05:54;;;;;;;3.03;1.42;;;;;;;8.96;100.00;97274.44;5029354;28;20018;-80
2024/02/22 09:08:20;;;;;;;2.85;1.25;;;;;;;9.09;100.00;97275.28;5014634;28;20036;-83
2024/02/22 09:10:47;;;;;;;1.33;0.80;;;;;;;9.04;100.00;97278.69;5024819;28;20032;-79
2024/02/22 09:13:12;;;;;;;3.83;0.90;;;;;;;9.10;100.00;97271.56;5012774;28;20281;-79
2024/02/22 09:15:38;;;;;;;2.75;0.70;;;;;;;9.08;100.00;97268.25;5027303;28;20029;-78
2024/02/22 09:18:04;;;;;;;1.95;0.85;;;;;;;9.16;100.00;97265.22;5026401;28;20049;-81
2024/02/22 09:20:29;;;;;;;4.30;1.63;;;;;;;9.00;100.00;97237.84;5032089;28;20026;-71
2024/02/22 09:22:56;;;;;;;1.23;0.77;;;;;;;9.03;100.00;97251.94;5030979;28;20337;-73
2024/02/22 09:25:21;;;;;;;1.95;0.93;;;;;;;9.05;100.00;97247.13;5027502;28;20025;-71
2024/02/22 09:27:46;;;;;;;1.15;0.65;;;;;;;8.99;100.00;97230.81;5021269;28;20052;-72
2024/02/22 09:30:12;;;;;;;1.48;0.70;;;;;;;9.13;100.00;97249.50;5023452;28;20033;-73
2024/02/22 09:32:37;;;;;;;0.70;0.50;;;;;;;9.04;100.00;97229.28;5025173;28;20017;-73
2024/02/22 09:35:03;;;;;;;1.08;0.50;;;;;;;8.94;100.00;97214.50;5012243;28;20033;-72
2024/02/22 09:37:31;;;;;;;0.98;0.55;;;;;;;9.11;100.00;97230.84;5015410;28;20044;-70
2024/02/22 09:39:56;;;;;;;1.52;0.35;;;;;;;9.25;100.00;97234.16;5017162;28;20032;-71
2024/02/22 09:42:26;;;;;;;0.80;0.40;;;;;;;9.12;100.00;97207.41;5027800;28;20034;-70
2024/02/22 09:44:53;;;;;;;4.22;0.50;;;;;;;9.18;100.00;97222.66;5010933;28;20110;-72
2024/02/22 09:47:19;;;;;;;0.85;0.35;;;;;;;9.14;100.00;97203.41;5028317;28;20046;-69
2024/02/22 09:49:44;;;;;;;1.50;0.70;;;;;;;9.31;100.00;97233.22;5031931;28;20033;-69
2024/02/22 09:52:12;;;;;;;1.60;0.47;;;;;;;9.38;100.00;97233.09;5025544;28;20089;-68
2024/02/22 09:54:38;;;;;;;3.40;0.73;;;;;;;9.43;100.00;97234.03;5030384;28;20309;-68
2024/02/22 09:57:03;;;;;;;1.83;0.75;;;;;;;9.37;100.00;97223.34;5008122;28;20049;-69
2024/02/22 09:59:29;;;;;;;1.98;0.60;;;;;;;9.42;100.00;97202.69;5022049;28;20025;-70
2024/02/22 10:01:56;;;;;;;1.45;0.30;;;;;;;9.51;100.00;97191.53;5030466;28;20032;-70
2024/02/22 10:04:23;;;;;;;0.88;0.30;;;;;;;9.55;100.00;97179.22;5023538;28;20036;-70
2024/02/22 10:07:09;;;;;;;1.30;0.57;;;;;;;9.66;100.00;97194.56;5034824;28;20021;-70
2024/02/22 10:09:42;;;;;;;1.67;0.80;;;;;;;9.59;100.00;97186.63;5004960;28;20037;-70
2024/02/22 10:12:08;;;;;;;2.10;1.00;;;;;;;9.53;100.00;97189.44;5028501;28;20336;-70
2024/02/22 10:14:36;;;;;;;1.33;0.90;;;;;;;9.66;100.00;97181.06;5023513;28;20221;-70
2024/02/22 10:17:06;;;;;;;1.40;0.57;;;;;;;9.72;100.00;97193.66;5027511;28;20325;-70
2024/02/22 10:19:31;;;;;;;;;;;;;;;9.83;100.00;97186.56;5032393;28;20057;-69
2024/02/22 10:21:56;;;;;;;0.93;0.40;;;;;;;9.77;100.00;97174.84;5030605;28;20196;-70
2024/02/22 10:24:26;;;;;;;0.93;0.40;;;;;;;9.81;100.00;97162.50;5024146;28;20351;-70
2024/02/22 10:27:01;;;;;;;7.18;3.42;;;;;;;9.72;100.00;97141.50;5030140;28;20017;-70
2024/02/22 10:29:26;;;;;;;4.43;1.63;;;;;;;9.93;100.00;97148.13;5024818;28;20092;-70
2024/02/22 10:31:52;;;;;;;0.70;0.60;;;;;;;10.05;100.00;97157.03;5032867;28;20025;-70
2024/02/22 10:34:18;;;;;;;2.55;1.00;;;;;;;10.13;100.00;97163.94;5020146;28;20041;-70
2024/02/22 10:36:44;;;;;;;1.50;0.85;;;;;;;10.09;100.00;97144.69;5018707;28;20088;-74
2024/02/22 10:39:10;;;;;;;2.40;1.00;;;;;;;10.20;100.00;97160.03;5022228;28;20071;-75
2024/02/22 10:41:35;;;;;;;2.47;1.20;;;;;;;10.15;100.00;97129.38;5026554;28;20216;-76
2024/02/22 10:44:04;;;;;;;2.05;1.05;;;;;;;10.30;100.00;97132.41;5027232;28;20021;-75
2024/02/22 10:46:35;;;;;;;1.60;0.80;;;;;;;10.38;100.00;97136.59;5026120;28;20017;-75
2024/02/22 10:49:02;;;;;;;2.67;0.80;;;;;;;10.36;100.00;97133.31;5022648;28;20399;-75
2024/02/22 10:51:28;;;;;;;1.35;0.60;;;;;;;10.32;100.00;97122.16;5031062;28;20021;-74
2024/02/22 10:53:56;;;;;;;1.67;0.93;;;;;;;10.28;100.00;97102.91;5021071;28;20028;-75
2024/02/22 10:56:23;;;;;;;1.02;0.60;;;;;;;10.33;100.00;97110.28;5021915;28;20104;-75
2024/02/22 10:58:54;;;;;;;2.05;0.98;;;;;;;10.25;100.00;97083.63;5026333;28;20067;-74
2024/02/22 11:01:22;;;;;;;1.23;0.40;;;;;;;10.24;100.00;97095.47;5026640;28;20029;-75
2024/02/22 11:03:47;;;;;;;1.95;0.60;;;;;;;10.10;100.00;97094.97;5030726;28;20032;-75
2024/02/22 11:06:14;;;;;;;0.82;0.40;;;;;;;9.97;100.00;97081.75;5010530;28;20021;-71
2024/02/22 11:08:48;;;;;;;0.90;0.50;;;;;;;10.01;100.00;97089.16;5025427;28;20093;-71
2024/02/22 11:11:24;;;;;;;0.47;0.30;;;;;;;9.88;100.00;97100.25;5024440;28;20300;-71
2024/02/22 11:13:59;;;;;;;0.32;0.20;;;;;;;9.95;100.00;97078.47;5034191;28;20021;-71
2024/02/22 11:16:33;;;;;;;0.57;0.30;;;;;;;9.89;100.00;97069.47;5024600;28;20040;-72
2024/02/22 11:19:05;;;;;;;0.73;0.28;;;;;;;9.88;100.00;97071.34;5010562;28;20017;-71
2024/02/22 11:21:30;;;;;;;1.40;0.50;;;;;;;9.84;100.00;97056.66;5030470;28;20059;-71
2024/02/22 11:24:12;;;;;;;1.30;0.50;;;;;;;9.84;100.00;97051.28;5038366;28;20057;-71
2024/02/22 11:26:38;;;;;;;4.22;0.30;;;;;;;9.85;100.00;97063.72;5005761;28;20022;-72